sensor_id;sensor_type;location;lat;lon;timestamp;pressure;altitude;pressure_sealevel;temperature;humidity
56084;BME280;41958;52.416;13.428;2022-09-27T00:01:07;99132.22;;;12.04;84.40
56084;BME280;41958;52.416;13.428;2022-09-27T00:03:33;99128.22;;;12.05;84.51
56084;BME280;41958;52.416;13.428;2022-09-27T00:06:07;99120.59;;;12.06;84.50
56084;BME280;41958;52.416;13.428;2022-09-27T00:08:34;99115.00;;;12.06;84.65
56084;BME280;41958;52.416;13.428;2022-09-27T00:11:05;99112.63;;;12.08;84.28
56084;BME280;41958;52.416;13.428;2022-09-27T00:13:32;99100.22;;;11.98;84.92
56084;BME280;41958;52.416;13.428;2022-09-27T00:15:58;99103.81;;;12.06;84.36
56084;BME280;41958;52.416;13.428;2022-09-27T00:18:24;99103.03;;;12.09;83.97
56084;BME280;41958;52.416;13.428;2022-09-27T00:20:50;99104.22;;;12.08;84.32
56084;BME280;41958;52.416;13.428;2022-09-27T00:23:15;99095.00;;;12.00;84.39
56084;BME280;41958;52.416;13.428;2022-09-27T00:25:40;99091.41;;;12.07;83.73
56084;BME280;41958;52.416;13.428;2022-09-27T00:28:06;99087.44;;;12.08;83.77
56084;BME280;41958;52.416;13.428;2022-09-27T00:30:31;99086.63;;;12.11;83.64
56084;BME280;41958;52.416;13.428;2022-09-27T00:32:56;99088.63;;;12.07;83.66
56084;BME280;41958;52.416;13.428;2022-09-27T00:35:21;99087.81;;;12.10;83.58
56084;BME280;41958;52.416;13.428;2022-09-27T00:37:47;99087.44;;;12.11;83.45
56084;BME280;41958;52.416;13.428;2022-09-27T00:40:13;99083.41;;;12.12;83.52
56084;BME280;41958;52.416;13.428;2022-09-27T00:42:38;99079.03;;;12.11;83.51
56084;BME280;41958;52.416;13.428;2022-09-27T00:45:13;99072.63;;;12.14;83.80
56084;BME280;41958;52.416;13.428;2022-09-27T00:47:47;99071.81;;;12.07;83.23
56084;BME280;41958;52.416;13.428;2022-09-27T00:50:31;99064.63;;;12.09;82.93
56084;BME280;41958;52.416;13.428;2022-09-27T00:55:34;99059.81;;;12.10;83.68
56084;BME280;41958;52.416;13.428;2022-09-27T00:58:01;99056.22;;;12.09;82.74
56084;BME280;41958;52.416;13.428;2022-09-27T01:00:28;99058.22;;;12.05;83.80
56084;BME280;41958;52.416;13.428;2022-09-27T01:02:54;99049.03;;;12.01;83.30
56084;BME280;41958;52.416;13.428;2022-09-27T01:05:23;99041.03;;;12.00;83.46
56084;BME280;41958;52.416;13.428;2022-09-27T01:07:49;99041.03;;;11.96;84.47
56084;BME280;41958;52.416;13.428;2022-09-27T01:10:15;99041.81;;;11.93;83.74
56084;BME280;41958;52.416;13.428;2022-09-27T01:15:39;99033.44;;;12.07;83.20
56084;BME280;41958;52.416;13.428;2022-09-27T01:18:32;99023.81;;;12.12;81.84
56084;BME280;41958;52.416;13.428;2022-09-27T01:21:19;99025.41;;;12.17;82.04
56084;BME280;41958;52.416;13.428;2022-09-27T01:24:02;99016.59;;;12.14;82.97
56084;BME280;41958;52.416;13.428;2022-09-27T01:29:45;99015.81;;;12.07;82.69
56084;BME280;41958;52.416;13.428;2022-09-27T01:32:31;99009.81;;;12.08;82.62
56084;BME280;41958;52.416;13.428;2022-09-27T01:35:06;99010.22;;;12.07;82.56
56084;BME280;41958;52.416;13.428;2022-09-27T01:37:40;99005.00;;;12.20;82.09
56084;BME280;41958;52.416;13.428;2022-09-27T01:43:07;98998.22;;;12.13;81.64
56084;BME280;41958;52.416;13.428;2022-09-27T01:45:44;99003.78;;;12.24;80.86
56084;BME280;41958;52.416;13.428;2022-09-27T01:48:16;98998.59;;;12.26;81.49
56084;BME280;41958;52.416;13.428;2022-09-27T01:53:39;98984.97;;;12.32;81.19
56084;BME280;41958;52.416;13.428;2022-09-27T01:56:09;98982.16;;;12.32;81.08
56084;BME280;41958;52.416;13.428;2022-09-27T01:58:42;98967.34;;;12.31;80.42
56084;BME280;41958;52.416;13.428;2022-09-27T02:01:11;98964.94;;;12.34;80.42
56084;BME280;41958;52.416;13.428;2022-09-27T02:03:43;98973.34;;;12.34;80.19
56084;BME280;41958;52.416;13.428;2022-09-27T02:06:15;98964.13;;;12.40;80.09
56084;BME280;41958;52.416;13.428;2022-09-27T02:08:54;98965.31;;;12.39;79.91
56084;BME280;41958;52.416;13.428;2022-09-27T02:11:22;98964.50;;;12.42;79.96
56084;BME280;41958;52.416;13.428;2022-09-27T02:14:02;98952.50;;;12.45;79.99
56084;BME280;41958;52.416;13.428;2022-09-27T02:16:48;98956.50;;;12.44;80.04
56084;BME280;41958;52.416;13.428;2022-09-27T02:22:07;98945.28;;;12.48;80.24
56084;BME280;41958;52.416;13.428;2022-09-27T02:24:42;98934.09;;;12.48;80.12
56084;BME280;41958;52.416;13.428;2022-09-27T02:27:17;98936.84;;;12.59;80.06
56084;BME280;41958;52.416;13.428;2022-09-27T02:29:48;98930.41;;;12.58;79.41
56084;BME280;41958;52.416;13.428;2022-09-27T02:32:17;98931.66;;;12.54;79.62
56084;BME280;41958;52.416;13.428;2022-09-27T02:34:43;98932.78;;;12.63;79.72
56084;BME280;41958;52.416;13.428;2022-09-27T02:37:10;98928.75;;;12.68;79.48
56084;BME280;41958;52.416;13.428;2022-09-27T02:39:35;98927.59;;;12.62;80.01
56084;BME280;41958;52.416;13.428;2022-09-27T02:42:02;98924.81;;;12.62;80.17
56084;BME280;41958;52.416;13.428;2022-09-27T02:44:27;98916.41;;;12.58;80.25
56084;BME280;41958;52.416;13.428;2022-09-27T02:47:07;98917.59;;;12.64;79.64
56084;BME280;41958;52.416;13.428;2022-09-27T02:52:42;98910.38;;;12.63;79.88
56084;BME280;41958;52.416;13.428;2022-09-27T02:55:22;98910.31;;;12.71;79.10
56084;BME280;41958;52.416;13.428;2022-09-27T02:58:15;98900.75;;;12.64;79.26
56084;BME280;41958;52.416;13.428;2022-09-27T03:01:07;98910.38;;;12.60;79.53
56084;BME280;41958;52.416;13.428;2022-09-27T03:03:41;98903.56;;;12.61;79.11
56084;BME280;41958;52.416;13.428;2022-09-27T03:06:11;98908.00;;;12.58;79.52
56084;BME280;41958;52.416;13.428;2022-09-27T03:08:37;98894.81;;;12.55;79.69
56084;BME280;41958;52.416;13.428;2022-09-27T03:11:04;98905.22;;;12.55;78.97
56084;BME280;41958;52.416;13.428;2022-09-27T03:13:29;98903.63;;;12.50;79.37
56084;BME280;41958;52.416;13.428;2022-09-27T03:15:55;98905.22;;;12.55;79.42
56084;BME280;41958;52.416;13.428;2022-09-27T03:18:20;98891.59;;;12.57;79.66
56084;BME280;41958;52.416;13.428;2022-09-27T03:20:46;98901.97;;;12.60;80.11
56084;BME280;41958;52.416;13.428;2022-09-27T03:23:11;98890.44;;;12.47;79.47
56084;BME280;41958;52.416;13.428;2022-09-27T03:25:36;98893.63;;;12.56;80.22
56084;BME280;41958;52.416;13.428;2022-09-27T03:28:02;98887.19;;;12.59;79.97
56084;BME280;41958;52.416;13.428;2022-09-27T03:30:27;98880.81;;;12.52;80.78
56084;BME280;41958;52.416;13.428;2022-09-27T03:32:52;98883.19;;;12.53;78.99
56084;BME280;41958;52.416;13.428;2022-09-27T03:35:17;98889.63;;;12.46;80.58
56084;BME280;41958;52.416;13.428;2022-09-27T03:37:43;98862.81;;;12.49;80.47
56084;BME280;41958;52.416;13.428;2022-09-27T03:40:09;98872.44;;;12.48;80.77
56084;BME280;41958;52.416;13.428;2022-09-27T03:42:34;98870.00;;;12.50;81.50
56084;BME280;41958;52.416;13.428;2022-09-27T03:45:00;98872.50;;;12.37;81.91
56084;BME280;41958;52.416;13.428;2022-09-27T03:47:25;98870.84;;;12.43;81.40
56084;BME280;41958;52.416;13.428;2022-09-27T03:49:50;98868.88;;;12.40;82.71
56084;BME280;41958;52.416;13.428;2022-09-27T03:52:15;98873.66;;;12.40;83.24
56084;BME280;41958;52.416;13.428;2022-09-27T03:54:42;98867.28;;;12.39;83.97
56084;BME280;41958;52.416;13.428;2022-09-27T03:57:08;98869.34;;;12.28;84.48
56084;BME280;41958;52.416;13.428;2022-09-27T03:59:33;98867.31;;;12.28;85.22
56084;BME280;41958;52.416;13.428;2022-09-27T04:01:58;98864.56;;;12.18;86.06
56084;BME280;41958;52.416;13.428;2022-09-27T04:04:23;98862.13;;;12.27;86.78
56084;BME280;41958;52.416;13.428;2022-09-27T04:06:49;98858.09;;;12.31;86.88
56084;BME280;41958;52.416;13.428;2022-09-27T04:09:14;98849.72;;;12.28;87.80
56084;BME280;41958;52.416;13.428;2022-09-27T04:11:39;98848.59;;;12.11;88.17
56084;BME280;41958;52.416;13.428;2022-09-27T04:14:04;98848.97;;;12.17;88.26
56084;BME280;41958;52.416;13.428;2022-09-27T04:16:30;98850.59;;;12.14;88.27
56084;BME280;41958;52.416;13.428;2022-09-27T04:18:56;98853.78;;;12.16;88.42
56084;BME280;41958;52.416;13.428;2022-09-27T04:21:22;98851.81;;;12.13;88.16
56084;BME280;41958;52.416;13.428;2022-09-27T04:23:47;98845.38;;;12.16;89.34
56084;BME280;41958;52.416;13.428;2022-09-27T04:26:13;98856.19;;;12.18;89.30
56084;BME280;41958;52.416;13.428;2022-09-27T04:28:38;98849.78;;;12.17;89.54
56084;BME280;41958;52.416;13.428;2022-09-27T04:31:04;98848.97;;;12.17;89.31
56084;BME280;41958;52.416;13.428;2022-09-27T04:33:29;98843.03;;;12.07;90.00
56084;BME280;41958;52.416;13.428;2022-09-27T04:35:55;98853.00;;;12.16;90.86
56084;BME280;41958;52.416;13.428;2022-09-27T04:38:39;98845.03;;;12.10;91.09
56084;BME280;41958;52.416;13.428;2022-09-27T04:41:04;98853.00;;;12.08;90.68
56084;BME280;41958;52.416;13.428;2022-09-27T04:43:29;98852.63;;;12.03;91.48
56084;BME280;41958;52.416;13.428;2022-09-27T04:45:55;98849.84;;;11.99;92.13
56084;BME280;41958;52.416;13.428;2022-09-27T04:48:20;98847.88;;;11.92;92.33
56084;BME280;41958;52.416;13.428;2022-09-27T04:50:45;98854.66;;;11.95;92.43
56084;BME280;41958;52.416;13.428;2022-09-27T04:53:14;98843.88;;;11.90;93.26
56084;BME280;41958;52.416;13.428;2022-09-27T04:55:44;98854.28;;;11.82;93.41
56084;BME280;41958;52.416;13.428;2022-09-27T04:58:10;98849.50;;;11.79;94.00
56084;BME280;41958;52.416;13.428;2022-09-27T05:00:35;98851.09;;;11.80;94.84
56084;BME280;41958;52.416;13.428;2022-09-27T05:03:00;98853.50;;;11.74;94.81
56084;BME280;41958;52.416;13.428;2022-09-27T05:05:25;98851.50;;;11.78;95.58
56084;BME280;41958;52.416;13.428;2022-09-27T05:07:51;98833.94;;;11.63;95.88
56084;BME280;41958;52.416;13.428;2022-09-27T05:10:16;98844.31;;;11.70;96.58
56084;BME280;41958;52.416;13.428;2022-09-27T05:12:41;98853.50;;;11.74;97.06
56084;BME280;41958;52.416;13.428;2022-09-27T05:15:07;98848.72;;;11.68;97.74
56084;BME280;41958;52.416;13.428;2022-09-27T05:17:33;98847.56;;;11.54;98.28
56084;BME280;41958;52.416;13.428;2022-09-27T05:19:58;98851.56;;;11.57;100.00
56084;BME280;41958;52.416;13.428;2022-09-27T05:22:23;98844.38;;;11.52;100.00
56084;BME280;41958;52.416;13.428;2022-09-27T05:24:49;98843.22;;;11.42;100.00
56084;BME280;41958;52.416;13.428;2022-09-27T05:27:15;98854.41;;;11.42;100.00
56084;BME280;41958;52.416;13.428;2022-09-27T05:29:44;98848.41;;;11.40;100.00
56084;BME280;41958;52.416;13.428;2022-09-27T05:32:09;98855.59;;;11.34;100.00
56084;BME280;41958;52.416;13.428;2022-09-27T05:34:35;98850.81;;;11.35;100.00
56084;BME280;41958;52.416;13.428;2022-09-27T05:37:00;98848.78;;;11.35;100.00
56084;BME280;41958;52.416;13.428;2022-09-27T05:39:25;98851.22;;;11.37;100.00
56084;BME280;41958;52.416;13.428;2022-09-27T05:41:50;98850.00;;;11.30;100.00
56084;BME280;41958;52.416;13.428;2022-09-27T05:44:16;98845.59;;;11.40;100.00
56084;BME280;41958;52.416;13.428;2022-09-27T05:46:41;98851.59;;;11.39;100.00
56084;BME280;41958;52.416;13.428;2022-09-27T05:49:07;98851.97;;;11.52;100.00
56084;BME280;41958;52.416;13.428;2022-09-27T05:51:32;98845.97;;;11.57;100.00
56084;BME280;41958;52.416;13.428;2022-09-27T05:53:58;98842.78;;;11.47;100.00
56084;BME280;41958;52.416;13.428;2022-09-27T05:56:23;98852.78;;;11.56;100.00
56084;BME280;41958;52.416;13.428;2022-09-27T05:58:52;98850.38;;;11.51;100.00
56084;BME280;41958;52.416;13.428;2022-09-27T06:01:17;98848.78;;;11.46;100.00
56084;BME280;41958;52.416;13.428;2022-09-27T06:03:43;98848.00;;;11.49;100.00
56084;BME280;41958;52.416;13.428;2022-09-27T06:06:08;98846.38;;;11.48;100.00
56084;BME280;41958;52.416;13.428;2022-09-27T06:08:36;98843.19;;;11.46;100.00
56084;BME280;41958;52.416;13.428;2022-09-27T06:11:05;98849.19;;;11.52;100.00
56084;BME280;41958;52.416;13.428;2022-09-27T06:13:31;98843.97;;;11.50;100.00
56084;BME280;41958;52.416;13.428;2022-09-27T06:16:01;98846.41;;;11.41;100.00
56084;BME280;41958;52.416;13.428;2022-09-27T06:18:26;98840.00;;;11.40;100.00
56084;BME280;41958;52.416;13.428;2022-09-27T06:20:51;98834.00;;;11.49;100.00
56084;BME280;41958;52.416;13.428;2022-09-27T06:23:19;98846.38;;;11.55;100.00
56084;BME280;41958;52.416;13.428;2022-09-27T06:25:45;98842.00;;;11.47;100.00
56084;BME280;41958;52.416;13.428;2022-09-27T06:28:11;98841.97;;;11.54;100.00
56084;BME280;41958;52.416;13.428;2022-09-27T06:30:39;98844.75;;;11.58;100.00
56084;BME280;41958;52.416;13.428;2022-09-27T06:33:05;98839.97;;;11.62;100.00
56084;BME280;41958;52.416;13.428;2022-09-27T06:35:31;98839.53;;;11.67;100.00
56084;BME280;41958;52.416;13.428;2022-09-27T06:38:02;98838.34;;;11.64;100.00
56084;BME280;41958;52.416;13.428;2022-09-27T06:40:28;98843.16;;;11.64;100.00
56084;BME280;41958;52.416;13.428;2022-09-27T06:42:53;98841.97;;;11.54;100.00
56084;BME280;41958;52.416;13.428;2022-09-27T06:45:19;98842.75;;;11.58;100.00
56084;BME280;41958;52.416;13.428;2022-09-27T06:47:44;98844.75;;;11.61;100.00
56084;BME280;41958;52.416;13.428;2022-09-27T06:50:10;98851.56;;;11.60;100.00
56084;BME280;41958;52.416;13.428;2022-09-27T06:52:36;98845.16;;;11.60;100.00
56084;BME280;41958;52.416;13.428;2022-09-27T06:55:03;98842.75;;;11.58;100.00
56084;BME280;41958;52.416;13.428;2022-09-27T06:57:29;98843.16;;;11.60;100.00
56084;BME280;41958;52.416;13.428;2022-09-27T07:00:13;98842.72;;;11.69;100.00
56084;BME280;41958;52.416;13.428;2022-09-27T07:02:47;98853.91;;;11.69;100.00
56084;BME280;41958;52.416;13.428;2022-09-27T07:05:12;98850.31;;;11.79;100.00
56084;BME280;41958;52.416;13.428;2022-09-27T07:07:38;98850.72;;;11.74;100.00
56084;BME280;41958;52.416;13.428;2022-09-27T07:10:04;98845.13;;;11.78;100.00
56084;BME280;41958;52.416;13.428;2022-09-27T07:12:29;98845.06;;;11.96;100.00
56084;BME280;41958;52.416;13.428;2022-09-27T07:14:54;98843.88;;;11.97;100.00
56084;BME280;41958;52.416;13.428;2022-09-27T07:17:20;98858.66;;;12.01;100.00
56084;BME280;41958;52.416;13.428;2022-09-27T07:19:45;98860.25;;;12.02;100.00
56084;BME280;41958;52.416;13.428;2022-09-27T07:22:11;98853.06;;;12.01;100.00
56084;BME280;41958;52.416;13.428;2022-09-27T07:24:36;98847.09;;;11.95;100.00
56084;BME280;41958;52.416;13.428;2022-09-27T07:27:01;98853.44;;;12.07;100.00
56084;BME280;41958;52.416;13.428;2022-09-27T07:29:27;98853.88;;;11.98;100.00
56084;BME280;41958;52.416;13.428;2022-09-27T07:31:52;98853.47;;;11.92;100.00
56084;BME280;41958;52.416;13.428;2022-09-27T07:34:17;98855.84;;;12.01;100.00
56084;BME280;41958;52.416;13.428;2022-09-27T07:36:43;98855.84;;;12.01;100.00
56084;BME280;41958;52.416;13.428;2022-09-27T07:39:08;98856.63;;;12.05;100.00
56084;BME280;41958;52.416;13.428;2022-09-27T07:41:34;98851.03;;;12.02;100.00
56084;BME280;41958;52.416;13.428;2022-09-27T07:43:59;98851.44;;;12.04;100.00
56084;BME280;41958;52.416;13.428;2022-09-27T07:46:25;98851.84;;;12.02;100.00
56084;BME280;41958;52.416;13.428;2022-09-27T07:48:50;98849.06;;;11.95;100.00
56084;BME280;41958;52.416;13.428;2022-09-27T07:51:16;98849.88;;;11.95;100.00
56084;BME280;41958;52.416;13.428;2022-09-27T07:53:41;98853.47;;;12.00;100.00
56084;BME280;41958;52.416;13.428;2022-09-27T07:56:07;98857.78;;;12.15;100.00
56084;BME280;41958;52.416;13.428;2022-09-27T07:58:32;98846.22;;;12.06;100.00
56084;BME280;41958;52.416;13.428;2022-09-27T08:00:58;98856.63;;;12.09;100.00
56084;BME280;41958;52.416;13.428;2022-09-27T08:03:23;98855.44;;;12.06;100.00
56084;BME280;41958;52.416;13.428;2022-09-27T08:05:49;98867.84;;;12.05;100.00
56084;BME280;41958;52.416;13.428;2022-09-27T08:08:15;98862.19;;;12.12;100.00
56084;BME280;41958;52.416;13.428;2022-09-27T08:10:40;98859.44;;;12.02;100.00
56084;BME280;41958;52.416;13.428;2022-09-27T08:13:09;98857.47;;;12.02;100.00
56084;BME280;41958;52.416;13.428;2022-09-27T08:15:35;98851.44;;;12.00;100.00
56084;BME280;41958;52.416;13.428;2022-09-27T08:18:02;98859.44;;;12.02;100.00
56084;BME280;41958;52.416;13.428;2022-09-27T08:20:27;98867.81;;;12.09;100.00
56084;BME280;41958;52.416;13.428;2022-09-27T08:22:53;98859.44;;;12.05;100.00
56084;BME280;41958;52.416;13.428;2022-09-27T08:25:19;98854.56;;;12.17;100.00
56084;BME280;41958;52.416;13.428;2022-09-27T08:27:58;98863.28;;;12.37;100.00
56084;BME280;41958;52.416;13.428;2022-09-27T08:30:24;98860.47;;;12.40;100.00
56084;BME280;41958;52.416;13.428;2022-09-27T08:32:54;98868.91;;;12.33;100.00
56084;BME280;41958;52.416;13.428;2022-09-27T08:35:19;98868.53;;;12.27;100.00
56084;BME280;41958;52.416;13.428;2022-09-27T08:37:52;98866.09;;;12.37;100.00
56084;BME280;41958;52.416;13.428;2022-09-27T08:40:18;98856.94;;;12.29;100.00
56084;BME280;41958;52.416;13.428;2022-09-27T08:42:59;98864.00;;;12.52;100.00
56084;BME280;41958;52.416;13.428;2022-09-27T08:45:31;98866.00;;;12.55;100.00
56084;BME280;41958;52.416;13.428;2022-09-27T08:48:01;98872.81;;;12.46;100.00
56084;BME280;41958;52.416;13.428;2022-09-27T08:50:30;98865.66;;;12.45;100.00
56084;BME280;41958;52.416;13.428;2022-09-27T08:53:03;98874.38;;;12.58;100.00
56084;BME280;41958;52.416;13.428;2022-09-27T08:55:34;98877.28;;;12.44;100.00
56084;BME280;41958;52.416;13.428;2022-09-27T08:58:02;98880.44;;;12.46;100.00
56084;BME280;41958;52.416;13.428;2022-09-27T09:00:29;98869.28;;;12.39;100.00
56084;BME280;41958;52.416;13.428;2022-09-27T09:02:55;98866.13;;;12.26;100.00
56084;BME280;41958;52.416;13.428;2022-09-27T09:05:30;98868.16;;;12.22;100.00
56084;BME280;41958;52.416;13.428;2022-09-27T09:11:07;98870.84;;;12.40;100.00
56084;BME280;41958;52.416;13.428;2022-09-27T09:14:16;98851.59;;;12.53;100.00
56084;BME280;41958;52.416;13.428;2022-09-27T09:16:50;98868.00;;;12.51;100.00
56084;BME280;41958;52.416;13.428;2022-09-27T09:19:42;98862.78;;;12.56;100.00
56084;BME280;41958;52.416;13.428;2022-09-27T09:22:56;98860.69;;;12.68;100.00
56084;BME280;41958;52.416;13.428;2022-09-27T09:28:49;98863.78;;;12.84;100.00
56084;BME280;41958;52.416;13.428;2022-09-27T09:34:03;98865.59;;;13.09;100.00
56084;BME280;41958;52.416;13.428;2022-09-27T09:39:17;98868.06;;;13.03;100.00
56084;BME280;41958;52.416;13.428;2022-09-27T09:42:09;98855.72;;;12.90;100.00
56084;BME280;41958;52.416;13.428;2022-09-27T09:44:42;98865.22;;;13.07;100.00
56084;BME280;41958;52.416;13.428;2022-09-27T09:47:20;98865.00;;;12.83;100.00
56084;BME280;41958;52.416;13.428;2022-09-27T09:49:53;98866.41;;;13.09;100.00
56084;BME280;41958;52.416;13.428;2022-09-27T09:52:23;98854.88;;;12.96;100.00
56084;BME280;41958;52.416;13.428;2022-09-27T09:55:01;98859.28;;;13.01;100.00
56084;BME280;41958;52.416;13.428;2022-09-27T09:57:33;98854.28;;;13.20;100.00
56084;BME280;41958;52.416;13.428;2022-09-27T10:00:05;98855.38;;;13.33;100.00
56084;BME280;41958;52.416;13.428;2022-09-27T10:02:40;98853.78;;;13.32;100.00
56084;BME280;41958;52.416;13.428;2022-09-27T10:05:06;98852.88;;;13.46;100.00
56084;BME280;41958;52.416;13.428;2022-09-27T10:07:36;98849.88;;;13.64;100.00
56084;BME280;41958;52.416;13.428;2022-09-27T10:10:04;98855.66;;;13.88;100.00
56084;BME280;41958;52.416;13.428;2022-09-27T10:12:31;98856.03;;;13.90;97.71
56084;BME280;41958;52.416;13.428;2022-09-27T10:14:58;98858.34;;;13.98;98.37
56084;BME280;41958;52.416;13.428;2022-09-27T10:17:31;98861.19;;;13.95;97.05
56084;BME280;41958;52.416;13.428;2022-09-27T10:20:00;98850.59;;;14.06;97.45
56084;BME280;41958;52.416;13.428;2022-09-27T10:22:37;98854.13;;;14.14;97.41
56084;BME280;41958;52.416;13.428;2022-09-27T10:25:05;98854.16;;;14.10;98.87
56084;BME280;41958;52.416;13.428;2022-09-27T10:27:49;98843.94;;;14.27;98.03
56084;BME280;41958;52.416;13.428;2022-09-27T10:30:28;98850.38;;;14.24;96.54
56084;BME280;41958;52.416;13.428;2022-09-27T10:32:58;98840.84;;;14.18;95.18
56084;BME280;41958;52.416;13.428;2022-09-27T10:37:52;98844.00;;;14.51;95.02
56084;BME280;41958;52.416;13.428;2022-09-27T10:40:26;98840.97;;;14.69;94.37
56084;BME280;41958;52.416;13.428;2022-09-27T10:42:52;98835.84;;;14.88;91.75
56084;BME280;41958;52.416;13.428;2022-09-27T10:45:31;98833.41;;;15.13;93.03
56084;BME280;41958;52.416;13.428;2022-09-27T10:47:58;98823.56;;;15.25;87.98
56084;BME280;41958;52.416;13.428;2022-09-27T10:50:26;98821.88;;;15.31;91.01
56084;BME280;41958;52.416;13.428;2022-09-27T10:53:14;98822.16;;;15.37;89.60
56084;BME280;41958;52.416;13.428;2022-09-27T10:55:41;98817.25;;;15.17;89.74
56084;BME280;41958;52.416;13.428;2022-09-27T10:58:16;98828.66;;;15.10;88.23
56084;BME280;41958;52.416;13.428;2022-09-27T11:00:43;98823.75;;;15.14;89.80
56084;BME280;41958;52.416;13.428;2022-09-27T11:03:15;98825.75;;;14.90;90.54
56084;BME280;41958;52.416;13.428;2022-09-27T11:05:41;98828.88;;;14.96;88.74
56084;BME280;41958;52.416;13.428;2022-09-27T11:11:17;98806.38;;;14.96;87.96
56084;BME280;41958;52.416;13.428;2022-09-27T11:14:02;98827.53;;;14.80;87.08
56084;BME280;41958;52.416;13.428;2022-09-27T11:16:44;98819.69;;;14.92;85.99
56084;BME280;41958;52.416;13.428;2022-09-27T11:19:33;98820.78;;;14.74;88.05
56084;BME280;41958;52.416;13.428;2022-09-27T11:22:38;98820.94;;;14.63;87.81
56084;BME280;41958;52.416;13.428;2022-09-27T11:25:21;98823.53;;;14.50;86.99
56084;BME280;41958;52.416;13.428;2022-09-27T11:28:02;98828.91;;;14.38;88.02
56084;BME280;41958;52.416;13.428;2022-09-27T11:30:39;98832.13;;;14.40;89.77
56084;BME280;41958;52.416;13.428;2022-09-27T11:33:31;98827.56;;;14.49;89.24
56084;BME280;41958;52.416;13.428;2022-09-27T11:36:02;98825.00;;;14.59;87.07
56084;BME280;41958;52.416;13.428;2022-09-27T11:39:00;98831.00;;;14.61;86.57
56084;BME280;41958;52.416;13.428;2022-09-27T11:41:44;98846.53;;;14.42;89.52
56084;BME280;41958;52.416;13.428;2022-09-27T11:50:15;98852.50;;;12.31;100.00
56084;BME280;41958;52.416;13.428;2022-09-27T11:53:02;98867.06;;;12.01;100.00
56084;BME280;41958;52.416;13.428;2022-09-27T11:55:40;98857.94;;;11.64;100.00
56084;BME280;41958;52.416;13.428;2022-09-27T11:58:30;98867.56;;;11.60;100.00
56084;BME280;41958;52.416;13.428;2022-09-27T12:03:55;98887.53;;;11.51;100.00
56084;BME280;41958;52.416;13.428;2022-09-27T12:09:34;98891.16;;;11.41;100.00
56084;BME280;41958;52.416;13.428;2022-09-27T12:12:03;98881.16;;;11.43;100.00
56084;BME280;41958;52.416;13.428;2022-09-27T12:17:04;98881.50;;;11.67;100.00
56084;BME280;41958;52.416;13.428;2022-09-27T12:19:38;98885.06;;;11.86;100.00
56084;BME280;41958;52.416;13.428;2022-09-27T12:22:06;98889.03;;;12.03;100.00
56084;BME280;41958;52.416;13.428;2022-09-27T12:24:36;98891.38;;;12.19;100.00
56084;BME280;41958;52.416;13.428;2022-09-27T12:27:09;98892.84;;;12.48;100.00
56084;BME280;41958;52.416;13.428;2022-09-27T12:29:41;98893.50;;;12.74;100.00
56084;BME280;41958;52.416;13.428;2022-09-27T12:32:24;98890.56;;;12.92;100.00
56084;BME280;41958;52.416;13.428;2022-09-27T12:35:04;98893.25;;;13.10;100.00
56084;BME280;41958;52.416;13.428;2022-09-27T12:37:41;98896.34;;;13.20;100.00
56084;BME280;41958;52.416;13.428;2022-09-27T12:40:20;98891.91;;;13.26;100.00
56084;BME280;41958;52.416;13.428;2022-09-27T12:43:02;98895.19;;;13.17;100.00
56084;BME280;41958;52.416;13.428;2022-09-27T12:45:50;98889.56;;;13.17;100.00
56084;BME280;41958;52.416;13.428;2022-09-27T12:48:55;98889.69;;;13.06;100.00
56084;BME280;41958;52.416;13.428;2022-09-27T12:51:32;98896.94;;;13.00;100.00
56084;BME280;41958;52.416;13.428;2022-09-27T12:54:22;98897.69;;;13.04;100.00
56084;BME280;41958;52.416;13.428;2022-09-27T12:57:20;98898.41;;;13.15;100.00
56084;BME280;41958;52.416;13.428;2022-09-27T13:00:04;98899.22;;;13.61;100.00
56084;BME280;41958;52.416;13.428;2022-09-27T13:03:10;98899.28;;;13.96;100.00
56084;BME280;41958;52.416;13.428;2022-09-27T13:06:06;98904.50;;;13.94;100.00
56084;BME280;41958;52.416;13.428;2022-09-27T13:08:56;98901.06;;;13.79;100.00
56084;BME280;41958;52.416;13.428;2022-09-27T13:11:35;98900.19;;;13.47;100.00
56084;BME280;41958;52.416;13.428;2022-09-27T13:14:04;98905.88;;;13.33;100.00
56084;BME280;41958;52.416;13.428;2022-09-27T13:16:30;98910.78;;;13.22;100.00
56084;BME280;41958;52.416;13.428;2022-09-27T13:19:38;98914.16;;;12.98;100.00
56084;BME280;41958;52.416;13.428;2022-09-27T13:24:50;98912.13;;;13.06;100.00
56084;BME280;41958;52.416;13.428;2022-09-27T13:29:47;98909.69;;;13.05;100.00
56084;BME280;41958;52.416;13.428;2022-09-27T13:32:15;98900.16;;;12.95;100.00
56084;BME280;41958;52.416;13.428;2022-09-27T13:34:46;98909.31;;;13.06;100.00
56084;BME280;41958;52.416;13.428;2022-09-27T13:43:04;98916.91;;;13.02;100.00
56084;BME280;41958;52.416;13.428;2022-09-27T13:48:25;98908.91;;;13.04;100.00
56084;BME280;41958;52.416;13.428;2022-09-27T13:50:57;98916.56;;;12.96;99.23
56084;BME280;41958;52.416;13.428;2022-09-27T13:53:38;98918.94;;;13.02;99.66
56084;BME280;41958;52.416;13.428;2022-09-27T13:56:04;98901.00;;;12.92;98.88
56084;BME280;41958;52.416;13.428;2022-09-27T14:01:21;98917.78;;;12.95;99.30
56084;BME280;41958;52.416;13.428;2022-09-27T14:03:51;98927.00;;;12.96;98.93
56084;BME280;41958;52.416;13.428;2022-09-27T14:06:21;98929.44;;;12.87;97.52
56084;BME280;41958;52.416;13.428;2022-09-27T14:08:55;98932.19;;;12.97;98.94
56084;BME280;41958;52.416;13.428;2022-09-27T14:11:37;98938.13;;;13.07;98.89
56084;BME280;41958;52.416;13.428;2022-09-27T14:14:04;98937.38;;;13.03;98.31